sensor_id;sensor_type;location;lat;lon;timestamp;temperature;humidity
76239;SHT30;65043;48.392;-4.472;2023-02-04T00:00:44;11.18;62.92
76239;SHT30;65043;48.392;-4.472;2023-02-04T00:03:10;11.15;62.81
76239;SHT30;65043;48.392;-4.472;2023-02-04T00:05:36;11.14;62.99
76239;SHT30;65043;48.392;-4.472;2023-02-04T00:08:01;11.14;62.82
76239;SHT30;65043;48.392;-4.472;2023-02-04T00:10:27;11.13;62.41
76239;SHT30;65043;48.392;-4.472;2023-02-04T00:12:52;11.14;62.37
76239;SHT30;65043;48.392;-4.472;2023-02-04T00:15:17;11.15;62.91
76239;SHT30;65043;48.392;-4.472;2023-02-04T00:17:43;11.15;62.79
76239;SHT30;65043;48.392;-4.472;2023-02-04T00:20:08;11.15;62.61
76239;SHT30;65043;48.392;-4.472;2023-02-04T00:22:34;11.15;62.36
76239;SHT30;65043;48.392;-4.472;2023-02-04T00:24:59;11.14;62.87
76239;SHT30;65043;48.392;-4.472;2023-02-04T00:27:25;11.14;62.41
76239;SHT30;65043;48.392;-4.472;2023-02-04T00:29:50;11.14;62.66
76239;SHT30;65043;48.392;-4.472;2023-02-04T00:32:15;11.13;62.61
76239;SHT30;65043;48.392;-4.472;2023-02-04T00:34:41;11.13;62.49
76239;SHT30;65043;48.392;-4.472;2023-02-04T00:37:06;11.14;62.72
76239;SHT30;65043;48.392;-4.472;2023-02-04T00:39:31;11.15;62.66
76239;SHT30;65043;48.392;-4.472;2023-02-04T00:41:57;11.14;62.61
76239;SHT30;65043;48.392;-4.472;2023-02-04T00:44:22;11.15;62.80
76239;SHT30;65043;48.392;-4.472;2023-02-04T00:46:48;11.14;62.82
76239;SHT30;65043;48.392;-4.472;2023-02-04T00:49:13;11.14;62.74
76239;SHT30;65043;48.392;-4.472;2023-02-04T00:51:39;11.11;62.73
76239;SHT30;65043;48.392;-4.472;2023-02-04T00:54:06;11.11;62.70
76239;SHT30;65043;48.392;-4.472;2023-02-04T00:56:32;11.11;62.70
76239;SHT30;65043;48.392;-4.472;2023-02-04T00:58:58;11.08;62.68
76239;SHT30;65043;48.392;-4.472;2023-02-04T01:01:23;11.08;62.68
76239;SHT30;65043;48.392;-4.472;2023-02-04T01:03:49;11.11;63.01
76239;SHT30;65043;48.392;-4.472;2023-02-04T01:06:14;11.07;62.74
76239;SHT30;65043;48.392;-4.472;2023-02-04T01:08:40;11.08;62.49
76239;SHT30;65043;48.392;-4.472;2023-02-04T01:11:05;11.07;62.91
76239;SHT30;65043;48.392;-4.472;2023-02-04T01:13:30;11.11;62.20
76239;SHT30;65043;48.392;-4.472;2023-02-04T01:15:56;11.08;62.51
76239;SHT30;65043;48.392;-4.472;2023-02-04T01:18:21;11.08;62.29
76239;SHT30;65043;48.392;-4.472;2023-02-04T01:20:47;11.07;62.25
76239;SHT30;65043;48.392;-4.472;2023-02-04T01:23:12;11.07;61.73
76239;SHT30;65043;48.392;-4.472;2023-02-04T01:25:37;11.04;62.06
76239;SHT30;65043;48.392;-4.472;2023-02-04T01:28:03;11.06;62.20
76239;SHT30;65043;48.392;-4.472;2023-02-04T01:30:28;11.06;62.43
76239;SHT30;65043;48.392;-4.472;2023-02-04T01:32:54;11.08;62.27
76239;SHT30;65043;48.392;-4.472;2023-02-04T01:35:19;11.04;62.21
76239;SHT30;65043;48.392;-4.472;2023-02-04T01:37:44;11.04;62.14
76239;SHT30;65043;48.392;-4.472;2023-02-04T01:40:10;11.06;61.99
76239;SHT30;65043;48.392;-4.472;2023-02-04T01:42:36;11.06;62.17
76239;SHT30;65043;48.392;-4.472;2023-02-04T01:45:03;11.06;61.84
76239;SHT30;65043;48.392;-4.472;2023-02-04T01:47:30;11.03;61.97
76239;SHT30;65043;48.392;-4.472;2023-02-04T01:49:56;11.01;62.00
76239;SHT30;65043;48.392;-4.472;2023-02-04T01:52:22;11.01;61.86
76239;SHT30;65043;48.392;-4.472;2023-02-04T01:54:48;11.00;62.21
76239;SHT30;65043;48.392;-4.472;2023-02-04T01:57:15;11.01;62.42
76239;SHT30;65043;48.392;-4.472;2023-02-04T01:59:44;11.00;62.34
76239;SHT30;65043;48.392;-4.472;2023-02-04T02:02:36;11.01;62.32
76239;SHT30;65043;48.392;-4.472;2023-02-04T02:05:02;11.00;62.41
76239;SHT30;65043;48.392;-4.472;2023-02-04T02:07:27;11.01;62.14
76239;SHT30;65043;48.392;-4.472;2023-02-04T02:09:53;11.01;62.27
76239;SHT30;65043;48.392;-4.472;2023-02-04T02:12:18;10.99;62.09
76239;SHT30;65043;48.392;-4.472;2023-02-04T02:14:43;10.97;62.55
76239;SHT30;65043;48.392;-4.472;2023-02-04T02:17:09;10.96;62.71
76239;SHT30;65043;48.392;-4.472;2023-02-04T02:19:37;10.96;62.76
76239;SHT30;65043;48.392;-4.472;2023-02-04T02:22:07;10.96;62.68
76239;SHT30;65043;48.392;-4.472;2023-02-04T02:24:34;10.97;62.24
76239;SHT30;65043;48.392;-4.472;2023-02-04T02:27:03;10.99;62.33
76239;SHT30;65043;48.392;-4.472;2023-02-04T02:29:31;10.96;62.52
76239;SHT30;65043;48.392;-4.472;2023-02-04T02:31:57;10.99;62.44
76239;SHT30;65043;48.392;-4.472;2023-02-04T02:34:24;10.99;62.12
76239;SHT30;65043;48.392;-4.472;2023-02-04T02:36:50;10.97;62.39
76239;SHT30;65043;48.392;-4.472;2023-02-04T02:39:16;10.97;62.13
76239;SHT30;65043;48.392;-4.472;2023-02-04T02:41:42;10.97;62.18
76239;SHT30;65043;48.392;-4.472;2023-02-04T02:44:10;10.97;62.34
76239;SHT30;65043;48.392;-4.472;2023-02-04T02:46:36;10.97;62.14
76239;SHT30;65043;48.392;-4.472;2023-02-04T02:49:01;10.97;62.28
76239;SHT30;65043;48.392;-4.472;2023-02-04T02:51:27;10.94;62.48
76239;SHT30;65043;48.392;-4.472;2023-02-04T02:53:52;10.96;62.75
76239;SHT30;65043;48.392;-4.472;2023-02-04T02:56:18;10.94;62.85
76239;SHT30;65043;48.392;-4.472;2023-02-04T02:58:44;10.94;63.11
76239;SHT30;65043;48.392;-4.472;2023-02-04T03:01:10;10.96;63.16
76239;SHT30;65043;48.392;-4.472;2023-02-04T03:03:44;10.96;62.91
76239;SHT30;65043;48.392;-4.472;2023-02-04T03:06:20;10.97;63.04
76239;SHT30;65043;48.392;-4.472;2023-02-04T03:08:50;10.94;63.04
76239;SHT30;65043;48.392;-4.472;2023-02-04T03:11:16;10.93;62.99
76239;SHT30;65043;48.392;-4.472;2023-02-04T03:13:42;10.93;63.20
76239;SHT30;65043;48.392;-4.472;2023-02-04T03:16:07;10.94;62.98
76239;SHT30;65043;48.392;-4.472;2023-02-04T03:18:34;10.92;62.97
76239;SHT30;65043;48.392;-4.472;2023-02-04T03:21:01;10.92;62.62
76239;SHT30;65043;48.392;-4.472;2023-02-04T03:23:27;10.93;62.60
76239;SHT30;65043;48.392;-4.472;2023-02-04T03:25:52;10.92;62.59
76239;SHT30;65043;48.392;-4.472;2023-02-04T03:28:18;10.92;62.54
76239;SHT30;65043;48.392;-4.472;2023-02-04T03:30:44;10.93;62.92
76239;SHT30;65043;48.392;-4.472;2023-02-04T03:33:24;10.90;62.74
76239;SHT30;65043;48.392;-4.472;2023-02-04T03:35:50;10.92;62.66
76239;SHT30;65043;48.392;-4.472;2023-02-04T03:38:17;10.94;62.67
76239;SHT30;65043;48.392;-4.472;2023-02-04T03:40:43;10.94;62.44
76239;SHT30;65043;48.392;-4.472;2023-02-04T03:43:08;10.92;62.73
76239;SHT30;65043;48.392;-4.472;2023-02-04T03:45:33;10.89;62.55
76239;SHT30;65043;48.392;-4.472;2023-02-04T03:47:59;10.90;62.93
76239;SHT30;65043;48.392;-4.472;2023-02-04T03:50:24;10.89;62.91
76239;SHT30;65043;48.392;-4.472;2023-02-04T03:52:49;10.89;62.80
76239;SHT30;65043;48.392;-4.472;2023-02-04T03:55:16;10.90;63.04
76239;SHT30;65043;48.392;-4.472;2023-02-04T03:57:42;10.87;63.18
76239;SHT30;65043;48.392;-4.472;2023-02-04T04:00:08;10.87;63.24
76239;SHT30;65043;48.392;-4.472;2023-02-04T04:02:34;10.87;63.00
76239;SHT30;65043;48.392;-4.472;2023-02-04T04:04:59;10.87;62.85
76239;SHT30;65043;48.392;-4.472;2023-02-04T04:07:25;10.87;63.22
76239;SHT30;65043;48.392;-4.472;2023-02-04T04:09:50;10.90;63.34
76239;SHT30;65043;48.392;-4.472;2023-02-04T04:12:15;10.89;63.40
76239;SHT30;65043;48.392;-4.472;2023-02-04T04:14:41;10.89;63.13
76239;SHT30;65043;48.392;-4.472;2023-02-04T04:17:06;10.84;62.91
76239;SHT30;65043;48.392;-4.472;2023-02-04T04:19:32;10.84;62.87
76239;SHT30;65043;48.392;-4.472;2023-02-04T04:21:57;10.86;62.86
76239;SHT30;65043;48.392;-4.472;2023-02-04T04:24:22;10.86;62.97
76239;SHT30;65043;48.392;-4.472;2023-02-04T04:26:48;10.87;62.94
76239;SHT30;65043;48.392;-4.472;2023-02-04T04:29:13;10.83;63.19
76239;SHT30;65043;48.392;-4.472;2023-02-04T04:31:39;10.83;63.04
76239;SHT30;65043;48.392;-4.472;2023-02-04T04:34:04;10.83;63.14
76239;SHT30;65043;48.392;-4.472;2023-02-04T04:36:29;10.86;63.02
76239;SHT30;65043;48.392;-4.472;2023-02-04T04:38:55;10.84;62.95
76239;SHT30;65043;48.392;-4.472;2023-02-04T04:41:20;10.86;62.83
76239;SHT30;65043;48.392;-4.472;2023-02-04T04:43:45;10.84;62.86
76239;SHT30;65043;48.392;-4.472;2023-02-04T04:46:11;10.86;62.69
76239;SHT30;65043;48.392;-4.472;2023-02-04T04:48:36;10.84;62.77
76239;SHT30;65043;48.392;-4.472;2023-02-04T04:51:02;10.83;62.82
76239;SHT30;65043;48.392;-4.472;2023-02-04T04:53:27;10.84;62.74
76239;SHT30;65043;48.392;-4.472;2023-02-04T04:55:52;10.80;62.55
76239;SHT30;65043;48.392;-4.472;2023-02-04T04:58:18;10.80;62.58
76239;SHT30;65043;48.392;-4.472;2023-02-04T05:00:43;10.80;62.57
76239;SHT30;65043;48.392;-4.472;2023-02-04T05:03:09;10.77;62.56
76239;SHT30;65043;48.392;-4.472;2023-02-04T05:05:34;10.80;62.57
76239;SHT30;65043;48.392;-4.472;2023-02-04T05:08:04;10.77;62.77
76239;SHT30;65043;48.392;-4.472;2023-02-04T05:10:29;10.81;62.79
76239;SHT30;65043;48.392;-4.472;2023-02-04T05:12:55;10.81;62.66
76239;SHT30;65043;48.392;-4.472;2023-02-04T05:15:20;10.79;62.75
76239;SHT30;65043;48.392;-4.472;2023-02-04T05:17:45;10.80;62.64
76239;SHT30;65043;48.392;-4.472;2023-02-04T05:20:11;10.79;62.56
76239;SHT30;65043;48.392;-4.472;2023-02-04T05:22:36;10.77;62.65
76239;SHT30;65043;48.392;-4.472;2023-02-04T05:25:02;10.79;62.86
76239;SHT30;65043;48.392;-4.472;2023-02-04T05:27:28;10.76;62.74
76239;SHT30;65043;48.392;-4.472;2023-02-04T05:29:53;10.74;62.76
76239;SHT30;65043;48.392;-4.472;2023-02-04T05:32:18;10.77;62.67
76239;SHT30;65043;48.392;-4.472;2023-02-04T05:34:44;10.74;62.93
76239;SHT30;65043;48.392;-4.472;2023-02-04T05:37:09;10.74;62.86
76239;SHT30;65043;48.392;-4.472;2023-02-04T05:39:34;10.74;62.71
76239;SHT30;65043;48.392;-4.472;2023-02-04T05:42:00;10.76;62.83
76239;SHT30;65043;48.392;-4.472;2023-02-04T05:44:25;10.76;62.59
76239;SHT30;65043;48.392;-4.472;2023-02-04T05:46:50;10.74;62.73
76239;SHT30;65043;48.392;-4.472;2023-02-04T05:49:16;10.77;62.45
76239;SHT30;65043;48.392;-4.472;2023-02-04T05:51:41;10.77;62.26
76239;SHT30;65043;48.392;-4.472;2023-02-04T05:54:07;10.76;62.25
76239;SHT30;65043;48.392;-4.472;2023-02-04T05:56:32;10.76;62.37
76239;SHT30;65043;48.392;-4.472;2023-02-04T05:58:58;10.77;62.64
76239;SHT30;65043;48.392;-4.472;2023-02-04T06:01:23;10.77;61.95
76239;SHT30;65043;48.392;-4.472;2023-02-04T06:03:48;10.77;62.22
76239;SHT30;65043;48.392;-4.472;2023-02-04T06:06:14;10.74;62.33
76239;SHT30;65043;48.392;-4.472;2023-02-04T06:08:39;10.77;62.31
76239;SHT30;65043;48.392;-4.472;2023-02-04T06:11:05;10.73;62.23
76239;SHT30;65043;48.392;-4.472;2023-02-04T06:13:30;10.74;62.10
76239;SHT30;65043;48.392;-4.472;2023-02-04T06:15:55;10.72;62.34
76239;SHT30;65043;48.392;-4.472;2023-02-04T06:18:21;10.73;62.22
76239;SHT30;65043;48.392;-4.472;2023-02-04T06:20:46;10.70;62.25
76239;SHT30;65043;48.392;-4.472;2023-02-04T06:23:12;10.73;62.47
76239;SHT30;65043;48.392;-4.472;2023-02-04T06:25:37;10.70;62.38
76239;SHT30;65043;48.392;-4.472;2023-02-04T06:28:03;10.72;62.47
76239;SHT30;65043;48.392;-4.472;2023-02-04T06:30:28;10.70;62.52
76239;SHT30;65043;48.392;-4.472;2023-02-04T06:32:53;10.73;62.52
76239;SHT30;65043;48.392;-4.472;2023-02-04T06:35:19;10.72;62.72
76239;SHT30;65043;48.392;-4.472;2023-02-04T06:37:44;10.72;62.65
76239;SHT30;65043;48.392;-4.472;2023-02-04T06:40:11;10.73;62.62
76239;SHT30;65043;48.392;-4.472;2023-02-04T06:42:36;10.72;62.67
76239;SHT30;65043;48.392;-4.472;2023-02-04T06:45:03;10.72;62.48
76239;SHT30;65043;48.392;-4.472;2023-02-04T06:47:28;10.72;62.56
76239;SHT30;65043;48.392;-4.472;2023-02-04T06:49:54;10.70;62.60
76239;SHT30;65043;48.392;-4.472;2023-02-04T06:52:19;10.70;62.82
76239;SHT30;65043;48.392;-4.472;2023-02-04T06:54:44;10.69;62.84
76239;SHT30;65043;48.392;-4.472;2023-02-04T06:57:10;10.67;62.85
76239;SHT30;65043;48.392;-4.472;2023-02-04T06:59:38;10.69;63.05
76239;SHT30;65043;48.392;-4.472;2023-02-04T07:02:05;10.67;63.03
76239;SHT30;65043;48.392;-4.472;2023-02-04T07:04:31;10.69;62.99
76239;SHT30;65043;48.392;-4.472;2023-02-04T07:06:56;10.66;62.87
76239;SHT30;65043;48.392;-4.472;2023-02-04T07:09:22;10.69;62.70
76239;SHT30;65043;48.392;-4.472;2023-02-04T07:11:47;10.72;62.86
76239;SHT30;65043;48.392;-4.472;2023-02-04T07:14:12;10.67;62.76
76239;SHT30;65043;48.392;-4.472;2023-02-04T07:16:39;10.67;63.01
76239;SHT30;65043;48.392;-4.472;2023-02-04T07:19:04;10.67;62.94
76239;SHT30;65043;48.392;-4.472;2023-02-04T07:21:29;10.66;62.77
76239;SHT30;65043;48.392;-4.472;2023-02-04T07:23:55;10.66;62.68
76239;SHT30;65043;48.392;-4.472;2023-02-04T07:26:20;10.64;62.73
76239;SHT30;65043;48.392;-4.472;2023-02-04T07:28:46;10.66;62.82
76239;SHT30;65043;48.392;-4.472;2023-02-04T07:31:11;10.66;62.71
76239;SHT30;65043;48.392;-4.472;2023-02-04T07:33:37;10.64;62.54
76239;SHT30;65043;48.392;-4.472;2023-02-04T07:36:03;10.63;62.78
76239;SHT30;65043;48.392;-4.472;2023-02-04T07:38:28;10.64;62.65
76239;SHT30;65043;48.392;-4.472;2023-02-04T07:40:54;10.59;62.74
76239;SHT30;65043;48.392;-4.472;2023-02-04T07:43:19;10.60;62.64
76239;SHT30;65043;48.392;-4.472;2023-02-04T07:45:44;10.59;62.88
76239;SHT30;65043;48.392;-4.472;2023-02-04T07:48:10;10.59;62.82
76239;SHT30;65043;48.392;-4.472;2023-02-04T07:50:36;10.60;62.86
76239;SHT30;65043;48.392;-4.472;2023-02-04T07:53:01;10.56;62.78
76239;SHT30;65043;48.392;-4.472;2023-02-04T07:55:27;10.55;62.79
76239;SHT30;65043;48.392;-4.472;2023-02-04T07:57:53;10.59;62.78
76239;SHT30;65043;48.392;-4.472;2023-02-04T08:00:19;10.57;62.60
76239;SHT30;65043;48.392;-4.472;2023-02-04T08:02:44;10.57;62.54
76239;SHT30;65043;48.392;-4.472;2023-02-04T08:05:10;10.55;62.46
76239;SHT30;65043;48.392;-4.472;2023-02-04T08:07:35;10.56;62.40
76239;SHT30;65043;48.392;-4.472;2023-02-04T08:10:02;10.57;62.42
76239;SHT30;65043;48.392;-4.472;2023-02-04T08:12:27;10.59;62.74
76239;SHT30;65043;48.392;-4.472;2023-02-04T08:14:52;10.57;62.43
76239;SHT30;65043;48.392;-4.472;2023-02-04T08:17:18;10.57;62.27
76239;SHT30;65043;48.392;-4.472;2023-02-04T08:19:43;10.59;61.41
76239;SHT30;65043;48.392;-4.472;2023-02-04T08:22:08;10.56;62.03
76239;SHT30;65043;48.392;-4.472;2023-02-04T08:24:35;10.57;61.63
76239;SHT30;65043;48.392;-4.472;2023-02-04T08:27:01;10.56;61.77
76239;SHT30;65043;48.392;-4.472;2023-02-04T08:29:26;10.57;61.96
76239;SHT30;65043;48.392;-4.472;2023-02-04T08:31:51;10.59;61.58
76239;SHT30;65043;48.392;-4.472;2023-02-04T08:34:17;10.57;61.73
76239;SHT30;65043;48.392;-4.472;2023-02-04T08:36:42;10.59;61.67
76239;SHT30;65043;48.392;-4.472;2023-02-04T08:39:09;10.59;61.40
76239;SHT30;65043;48.392;-4.472;2023-02-04T08:41:34;10.60;61.05
76239;SHT30;65043;48.392;-4.472;2023-02-04T08:44:00;10.60;61.47
76239;SHT30;65043;48.392;-4.472;2023-02-04T08:46:25;10.57;61.38
76239;SHT30;65043;48.392;-4.472;2023-02-04T08:48:51;10.59;61.44
76239;SHT30;65043;48.392;-4.472;2023-02-04T08:51:16;10.60;61.46
76239;SHT30;65043;48.392;-4.472;2023-02-04T08:53:41;10.59;61.44
76239;SHT30;65043;48.392;-4.472;2023-02-04T08:56:07;10.59;61.04
76239;SHT30;65043;48.392;-4.472;2023-02-04T08:58:34;10.60;61.27
76239;SHT30;65043;48.392;-4.472;2023-02-04T09:00:59;10.62;61.33
76239;SHT30;65043;48.392;-4.472;2023-02-04T09:03:25;10.62;61.24
76239;SHT30;65043;48.392;-4.472;2023-02-04T09:05:51;10.60;61.57
76239;SHT30;65043;48.392;-4.472;2023-02-04T09:08:16;10.60;61.04
76239;SHT30;65043;48.392;-4.472;2023-02-04T09:10:41;10.63;61.22
76239;SHT30;65043;48.392;-4.472;2023-02-04T09:13:07;10.62;61.08
76239;SHT30;65043;48.392;-4.472;2023-02-04T09:15:35;10.60;61.51
76239;SHT30;65043;48.392;-4.472;2023-02-04T09:18:01;10.62;61.32
76239;SHT30;65043;48.392;-4.472;2023-02-04T09:20:35;10.63;61.41
76239;SHT30;65043;48.392;-4.472;2023-02-04T09:23:03;10.60;60.86
76239;SHT30;65043;48.392;-4.472;2023-02-04T09:25:31;10.62;61.43
76239;SHT30;65043;48.392;-4.472;2023-02-04T09:27:56;10.60;61.30
76239;SHT30;65043;48.392;-4.472;2023-02-04T09:30:21;10.60;61.22
76239;SHT30;65043;48.392;-4.472;2023-02-04T09:32:47;10.62;61.09
76239;SHT30;65043;48.392;-4.472;2023-02-04T09:35:12;10.60;60.98
76239;SHT30;65043;48.392;-4.472;2023-02-04T09:37:38;10.60;60.87
76239;SHT30;65043;48.392;-4.472;2023-02-04T09:40:03;10.62;61.22
76239;SHT30;65043;48.392;-4.472;2023-02-04T09:42:29;10.62;61.26
76239;SHT30;65043;48.392;-4.472;2023-02-04T09:44:54;10.62;61.25
76239;SHT30;65043;48.392;-4.472;2023-02-04T09:47:22;10.60;60.89
76239;SHT30;65043;48.392;-4.472;2023-02-04T09:49:49;10.64;61.03
76239;SHT30;65043;48.392;-4.472;2023-02-04T09:52:15;10.63;61.01
76239;SHT30;65043;48.392;-4.472;2023-02-04T09:54:42;10.63;60.86
76239;SHT30;65043;48.392;-4.472;2023-02-04T09:57:17;10.62;60.82
76239;SHT30;65043;48.392;-4.472;2023-02-04T09:59:43;10.62;60.68
76239;SHT30;65043;48.392;-4.472;2023-02-04T10:02:29;10.62;60.36
76239;SHT30;65043;48.392;-4.472;2023-02-04T10:04:56;10.62;60.26
76239;SHT30;65043;48.392;-4.472;2023-02-04T10:07:23;10.59;60.19
76239;SHT30;65043;48.392;-4.472;2023-02-04T10:09:51;10.60;60.26
76239;SHT30;65043;48.392;-4.472;2023-02-04T10:12:18;10.64;60.44
76239;SHT30;65043;48.392;-4.472;2023-02-04T10:14:44;10.60;60.24
76239;SHT30;65043;48.392;-4.472;2023-02-04T10:17:12;10.63;60.40
76239;SHT30;65043;48.392;-4.472;2023-02-04T10:19:41;10.63;60.61
76239;SHT30;65043;48.392;-4.472;2023-02-04T10:22:15;10.63;60.51
76239;SHT30;65043;48.392;-4.472;2023-02-04T10:24:41;10.67;60.61
76239;SHT30;65043;48.392;-4.472;2023-02-04T10:27:09;10.64;60.31
76239;SHT30;65043;48.392;-4.472;2023-02-04T10:29:35;10.66;60.35
76239;SHT30;65043;48.392;-4.472;2023-02-04T10:32:00;10.66;60.13
76239;SHT30;65043;48.392;-4.472;2023-02-04T10:34:38;10.64;60.21
76239;SHT30;65043;48.392;-4.472;2023-02-04T10:37:30;10.64;60.42
76239;SHT30;65043;48.392;-4.472;2023-02-04T10:39:56;10.67;60.13
76239;SHT30;65043;48.392;-4.472;2023-02-04T10:44:49;10.66;60.13
76239;SHT30;65043;48.392;-4.472;2023-02-04T10:47:27;10.66;60.06
76239;SHT30;65043;48.392;-4.472;2023-02-04T10:49:59;10.69;59.58
76239;SHT30;65043;48.392;-4.472;2023-02-04T10:52:38;10.66;59.01
76239;SHT30;65043;48.392;-4.472;2023-02-04T10:55:10;10.66;60.03
76239;SHT30;65043;48.392;-4.472;2023-02-04T10:57:38;10.66;59.92
76239;SHT30;65043;48.392;-4.472;2023-02-04T11:00:06;10.67;59.84
76239;SHT30;65043;48.392;-4.472;2023-02-04T11:02:42;10.69;59.85
76239;SHT30;65043;48.392;-4.472;2023-02-04T11:05:17;10.70;59.91
76239;SHT30;65043;48.392;-4.472;2023-02-04T11:07:44;10.73;59.26
76239;SHT30;65043;48.392;-4.472;2023-02-04T11:10:16;10.74;59.82
76239;SHT30;65043;48.392;-4.472;2023-02-04T11:12:46;10.74;59.38
76239;SHT30;65043;48.392;-4.472;2023-02-04T11:20:35;10.79;59.25
76239;SHT30;65043;48.392;-4.472;2023-02-04T11:23:33;10.77;59.07
76239;SHT30;65043;48.392;-4.472;2023-02-04T11:26:30;10.77;59.31
76239;SHT30;65043;48.392;-4.472;2023-02-04T11:39:16;10.87;59.77
76239;SHT30;65043;48.392;-4.472;2023-02-04T11:41:45;10.90;59.35
76239;SHT30;65043;48.392;-4.472;2023-02-04T11:44:13;10.90;58.86
76239;SHT30;65043;48.392;-4.472;2023-02-04T11:46:40;10.93;59.01
76239;SHT30;65043;48.392;-4.472;2023-02-04T11:49:17;10.93;58.74
76239;SHT30;65043;48.392;-4.472;2023-02-04T11:51:43;10.96;59.05
76239;SHT30;65043;48.392;-4.472;2023-02-04T11:54:15;10.94;58.89
76239;SHT30;65043;48.392;-4.472;2023-02-04T11:56:46;10.97;59.00
76239;SHT30;65043;48.392;-4.472;2023-02-04T11:59:13;10.96;59.02
76239;SHT30;65043;48.392;-4.472;2023-02-04T12:01:39;10.93;58.83
76239;SHT30;65043;48.392;-4.472;2023-02-04T12:04:07;10.96;59.09
76239;SHT30;65043;48.392;-4.472;2023-02-04T12:06:56;10.94;59.24
76239;SHT30;65043;48.392;-4.472;2023-02-04T12:09:23;10.96;59.14
76239;SHT30;65043;48.392;-4.472;2023-02-04T12:11:58;10.97;59.09
76239;SHT30;65043;48.392;-4.472;2023-02-04T12:14:37;10.94;58.93
76239;SHT30;65043;48.392;-4.472;2023-02-04T12:17:16;10.99;58.51
76239;SHT30;65043;48.392;-4.472;2023-02-04T12:19:42;11.00;58.91
76239;SHT30;65043;48.392;-4.472;2023-02-04T12:22:07;10.99;59.17
76239;SHT30;65043;48.392;-4.472;2023-02-04T12:24:33;10.97;58.88
76239;SHT30;65043;48.392;-4.472;2023-02-04T12:26:59;11.00;58.53
76239;SHT30;65043;48.392;-4.472;2023-02-04T12:29:24;10.99;58.79
76239;SHT30;65043;48.392;-4.472;2023-02-04T12:31:50;10.99;58.88
76239;SHT30;65043;48.392;-4.472;2023-02-04T12:34:15;10.99;58.96
76239;SHT30;65043;48.392;-4.472;2023-02-04T12:36:41;10.99;59.43
76239;SHT30;65043;48.392;-4.472;2023-02-04T12:39:07;11.01;59.60
76239;SHT30;65043;48.392;-4.472;2023-02-04T12:41:32;11.03;59.36
76239;SHT30;65043;48.392;-4.472;2023-02-04T12:43:58;11.08;59.10
76239;SHT30;65043;48.392;-4.472;2023-02-04T12:46:25;11.11;59.16
76239;SHT30;65043;48.392;-4.472;2023-02-04T12:48:51;11.13;59.49
76239;SHT30;65043;48.392;-4.472;2023-02-04T12:51:17;11.13;59.27
76239;SHT30;65043;48.392;-4.472;2023-02-04T12:53:45;11.14;59.10
76239;SHT30;65043;48.392;-4.472;2023-02-04T12:56:10;11.15;59.24
76239;SHT30;65043;48.392;-4.472;2023-02-04T12:58:35;11.13;59.03
76239;SHT30;65043;48.392;-4.472;2023-02-04T13:01:01;11.13;58.76
76239;SHT30;65043;48.392;-4.472;2023-02-04T13:03:26;11.11;58.92
76239;SHT30;65043;48.392;-4.472;2023-02-04T13:05:52;11.10;58.84
76239;SHT30;65043;48.392;-4.472;2023-02-04T13:08:17;11.07;59.26
76239;SHT30;65043;48.392;-4.472;2023-02-04T13:10:43;11.07;59.08
76239;SHT30;65043;48.392;-4.472;2023-02-04T13:13:08;11.10;59.31
76239;SHT30;65043;48.392;-4.472;2023-02-04T13:15:33;11.11;59.21
76239;SHT30;65043;48.392;-4.472;2023-02-04T13:17:59;11.11;59.03
76239;SHT30;65043;48.392;-4.472;2023-02-04T13:20:24;11.11;59.23
76239;SHT30;65043;48.392;-4.472;2023-02-04T13:22:49;11.13;59.34
76239;SHT30;65043;48.392;-4.472;2023-02-04T13:25:15;11.10;59.02
76239;SHT30;65043;48.392;-4.472;2023-02-04T13:27:40;11.13;59.30
76239;SHT30;65043;48.392;-4.472;2023-02-04T13:30:08;11.15;59.32
76239;SHT30;65043;48.392;-4.472;2023-02-04T13:32:35;11.20;58.59
76239;SHT30;65043;48.392;-4.472;2023-02-04T13:35:00;11.23;58.92
76239;SHT30;65043;48.392;-4.472;2023-02-04T13:37:26;11.32;58.64
76239;SHT30;65043;48.392;-4.472;2023-02-04T13:39:51;11.38;58.62
76239;SHT30;65043;48.392;-4.472;2023-02-04T13:42:16;11.41;58.58
76239;SHT30;65043;48.392;-4.472;2023-02-04T13:44:42;11.42;58.56
76239;SHT30;65043;48.392;-4.472;2023-02-04T13:47:07;11.42;58.53
76239;SHT30;65043;48.392;-4.472;2023-02-04T13:49:33;11.44;58.56
76239;SHT30;65043;48.392;-4.472;2023-02-04T13:51:59;11.44;58.52
76239;SHT30;65043;48.392;-4.472;2023-02-04T13:54:24;11.45;58.45
76239;SHT30;65043;48.392;-4.472;2023-02-04T13:56:50;11.46;58.57
76239;SHT30;65043;48.392;-4.472;2023-02-04T13:59:15;11.52;57.94
76239;SHT30;65043;48.392;-4.472;2023-02-04T14:01:41;11.51;58.15
76239;SHT30;65043;48.392;-4.472;2023-02-04T14:04:06;11.48;58.35
76239;SHT30;65043;48.392;-4.472;2023-02-04T14:06:32;11.48;58.46
76239;SHT30;65043;48.392;-4.472;2023-02-04T14:09:02;11.51;58.61
76239;SHT30;65043;48.392;-4.472;2023-02-04T14:11:27;11.48;58.11
76239;SHT30;65043;48.392;-4.472;2023-02-04T14:13:52;11.48;58.15
76239;SHT30;65043;48.392;-4.472;2023-02-04T14:16:18;11.48;58.63
76239;SHT30;65043;48.392;-4.472;2023-02-04T14:18:43;11.45;58.54
76239;SHT30;65043;48.392;-4.472;2023-02-04T14:21:08;11.45;58.70
76239;SHT30;65043;48.392;-4.472;2023-02-04T14:23:34;11.45;59.14
76239;SHT30;65043;48.392;-4.472;2023-02-04T14:25:59;11.50;58.89
76239;SHT30;65043;48.392;-4.472;2023-02-04T14:28:25;11.51;58.61
76239;SHT30;65043;48.392;-4.472;2023-02-04T14:30:50;11.50;58.08
76239;SHT30;65043;48.392;-4.472;2023-02-04T14:33:15;11.48;57.95
76239;SHT30;65043;48.392;-4.472;2023-02-04T14:35:42;11.46;57.80
76239;SHT30;65043;48.392;-4.472;2023-02-04T14:38:07;11.45;57.06
76239;SHT30;65043;48.392;-4.472;2023-02-04T14:40:35;11.46;58.08
76239;SHT30;65043;48.392;-4.472;2023-02-04T14:43:00;11.45;58.31
76239;SHT30;65043;48.392;-4.472;2023-02-04T14:45:26;11.50;58.41
76239;SHT30;65043;48.392;-4.472;2023-02-04T14:47:52;11.46;58.77
76239;SHT30;65043;48.392;-4.472;2023-02-04T14:50:21;11.42;58.62
76239;SHT30;65043;48.392;-4.472;2023-02-04T14:52:54;11.42;58.36
76239;SHT30;65043;48.392;-4.472;2023-02-04T14:55:23;11.44;58.82
76239;SHT30;65043;48.392;-4.472;2023-02-04T14:57:49;11.39;58.99
76239;SHT30;65043;48.392;-4.472;2023-02-04T15:00:15;11.41;58.81
76239;SHT30;65043;48.392;-4.472;2023-02-04T15:02:40;11.44;58.71
76239;SHT30;65043;48.392;-4.472;2023-02-04T15:05:07;11.39;58.88
76239;SHT30;65043;48.392;-4.472;2023-02-04T15:07:33;11.39;59.04
76239;SHT30;65043;48.392;-4.472;2023-02-04T15:09:58;11.36;58.95
76239;SHT30;65043;48.392;-4.472;2023-02-04T15:12:24;11.36;58.97
76239;SHT30;65043;48.392;-4.472;2023-02-04T15:14:50;11.39;58.99
76239;SHT30;65043;48.392;-4.472;2023-02-04T15:17:15;11.36;59.31
76239;SHT30;65043;48.392;-4.472;2023-02-04T15:19:40;11.39;58.26
76239;SHT30;65043;48.392;-4.472;2023-02-04T15:22:06;11.39;58.95
76239;SHT30;65043;48.392;-4.472;2023-02-04T15:24:31;11.38;58.89
76239;SHT30;65043;48.392;-4.472;2023-02-04T15:26:57;11.35;59.08
76239;SHT30;65043;48.392;-4.472;2023-02-04T15:29:22;11.35;58.96